Time;durP1;ratioP1;P1;durP2;ratioP2;P2;SDS_P1;SDS_P2;PMS_P1;PMS_P2;Temp;Humidity;BMP_temperature;BMP_pressure;BME280_temperature;BME280_humidity;BME280_pressure;Samples;Min_cycle;Max_cycle;Signal;HPM_P1;HPM_P2
2023/05/12 00:00:03;;;;;;;2.50;2.40;;;20.00;52.30;;;;;;4989929;28;20246;-76
2023/05/12 00:02:28;;;;;;;2.20;2.10;;;20.00;52.40;;;;;;4989677;28;20234;-75
2023/05/12 00:04:54;;;;;;;2.20;2.10;;;20.00;52.40;;;;;;4988277;28;20444;-75
2023/05/12 00:07:20;;;;;;;2.67;2.47;;;20.00;52.40;;;;;;4987355;28;20218;-76
2023/05/12 00:09:45;;;;;;;2.37;2.27;;;20.00;52.40;;;;;;4983741;28;20223;-75
2023/05/12 00:12:11;;;;;;;2.60;2.50;;;20.00;52.40;;;;;;4993828;28;20361;-76
2023/05/12 00:14:37;;;;;;;2.47;2.33;;;20.00;52.40;;;;;;4987516;28;20219;-76
2023/05/12 00:17:03;;;;;;;2.67;2.47;;;20.00;52.30;;;;;;4990811;28;20222;-76
2023/05/12 00:19:29;;;;;;;2.30;2.20;;;20.00;52.40;;;;;;4990505;28;20479;-75
2023/05/12 00:21:55;;;;;;;1.97;1.87;;;20.00;52.40;;;;;;4996741;28;20479;-75
2023/05/12 00:24:21;;;;;;;2.67;2.47;;;20.00;52.40;;;;;;5011746;28;20491;-76
2023/05/12 00:26:47;;;;;;;2.27;2.17;;;20.00;52.30;;;;;;5016912;28;20693;-76
2023/05/12 00:29:12;;;;;;;2.80;2.60;;;20.00;52.40;;;;;;5013126;28;20227;-76
2023/05/12 00:31:38;;;;;;;2.90;2.70;;;20.00;52.40;;;;;;5015203;28;22177;-75
2023/05/12 00:34:03;;;;;;;2.50;2.40;;;20.00;52.40;;;;;;5015752;28;20345;-76
2023/05/12 00:36:29;;;;;;;2.63;2.53;;;20.00;52.40;;;;;;5013014;28;20290;-76
2023/05/12 00:38:55;;;;;;;2.47;2.37;;;20.00;52.40;;;;;;5012627;28;20300;-76
2023/05/12 00:41:20;;;;;;;2.00;1.90;;;20.00;52.40;;;;;;4993891;28;20250;-76
2023/05/12 00:43:46;;;;;;;2.50;2.30;;;20.00;52.30;;;;;;5012998;28;20261;-76
2023/05/12 00:46:11;;;;;;;2.13;2.03;;;20.00;52.40;;;;;;5012779;28;20219;-76
2023/05/12 00:48:37;;;;;;;2.50;2.40;;;20.00;52.40;;;;;;5011465;28;20226;-76
2023/05/12 00:51:05;;;;;;;2.40;2.30;;;20.00;52.40;;;;;;5008103;28;20234;-75
2023/05/12 00:53:31;;;;;;;1.93;1.83;;;20.00;52.40;;;;;;5001995;28;20735;-76
2023/05/12 00:55:56;;;;;;;2.73;2.53;;;20.00;52.40;;;;;;5009707;28;20547;-76
2023/05/12 00:58:23;;;;;;;2.30;2.20;;;20.00;52.40;;;;;;5001514;28;20826;-75
2023/05/12 01:00:48;;;;;;;2.53;2.43;;;20.00;52.40;;;;;;4999244;28;20241;-76
2023/05/12 01:03:14;;;;;;;2.30;2.20;;;20.00;52.40;;;;;;4984422;28;20445;-76
2023/05/12 01:05:52;;;;;;;2.27;2.17;;;20.00;52.40;;;;;;5002658;28;20234;-75
2023/05/12 01:08:19;;;;;;;2.67;2.57;;;20.00;52.40;;;;;;5002808;28;20638;-76
2023/05/12 01:10:45;;;;;;;2.13;2.03;;;20.00;52.40;;;;;;5003704;28;20480;-76
2023/05/12 01:13:11;;;;;;;2.20;2.10;;;20.00;52.40;;;;;;5002120;28;20931;-75
2023/05/12 01:15:41;;;;;;;2.50;2.40;;;20.00;53.10;;;;;;5004142;28;20443;-76
2023/05/12 01:18:09;;;;;;;2.10;2.00;;;20.00;52.40;;;;;;5010658;28;20322;-75
2023/05/12 01:20:35;;;;;;;2.50;2.40;;;20.00;52.40;;;;;;5010222;28;20958;-74
2023/05/12 01:23:02;;;;;;;2.40;2.30;;;20.00;52.40;;;;;;5009767;28;20431;-76
2023/05/12 01:25:31;;;;;;;1.80;1.70;;;20.00;52.40;;;;;;5009244;28;20456;-76
2023/05/12 01:27:57;;;;;;;2.20;2.10;;;20.00;52.40;;;;;;4992053;28;20998;-76
2023/05/12 01:30:23;;;;;;;2.00;1.90;;;20.00;52.40;;;;;;5010305;28;20485;-76
2023/05/12 01:32:50;;;;;;;2.23;2.03;;;20.00;52.40;;;;;;5006302;28;20223;-75
2023/05/12 01:35:15;;;;;;;2.00;1.90;;;20.00;52.40;;;;;;5010217;28;20435;-76
2023/05/12 01:37:41;;;;;;;2.27;2.17;;;20.00;52.40;;;;;;4991728;28;20986;-75
2023/05/12 01:40:07;;;;;;;1.80;1.70;;;20.00;52.40;;;;;;5003551;28;20293;-75
2023/05/12 01:42:32;;;;;;;1.93;1.83;;;20.00;52.40;;;;;;5008433;28;20272;-76
2023/05/12 01:44:58;;;;;;;2.23;2.13;;;20.00;52.40;;;;;;5001877;28;20456;-75
2023/05/12 01:47:23;;;;;;;2.00;1.90;;;20.00;52.40;;;;;;4999185;28;20697;-75
2023/05/12 01:49:49;;;;;;;2.07;1.97;;;20.00;52.40;;;;;;5018601;28;20230;-76
2023/05/12 01:52:15;;;;;;;2.10;2.00;;;20.00;52.40;;;;;;5018351;28;20229;-75
2023/05/12 01:54:40;;;;;;;1.90;1.80;;;20.00;52.40;;;;;;5017015;28;20431;-75
2023/05/12 01:57:06;;;;;;;2.10;2.00;;;20.00;52.40;;;;;;5017624;28;20252;-74
2023/05/12 01:59:32;;;;;;;1.60;1.50;;;20.00;52.60;;;;;;5019235;28;20268;-76
2023/05/12 02:01:57;;;;;;;2.27;2.17;;;20.00;52.40;;;;;;4999415;28;20221;-76
2023/05/12 02:04:23;;;;;;;1.73;1.63;;;20.00;52.40;;;;;;5001420;28;20237;-76
2023/05/12 02:06:48;;;;;;;2.17;1.93;;;20.00;52.50;;;;;;5017949;28;20235;-76
2023/05/12 02:09:14;;;;;;;2.00;1.90;;;20.00;52.40;;;;;;5020938;28;20305;-75
2023/05/12 02:11:39;;;;;;;1.70;1.60;;;20.00;52.40;;;;;;5016763;28;20266;-76
2023/05/12 02:14:05;;;;;;;1.90;1.80;;;20.00;52.40;;;;;;5023030;28;20231;-76
2023/05/12 02:16:31;;;;;;;1.80;1.70;;;20.00;52.40;;;;;;5016744;28;20685;-76
2023/05/12 02:18:56;;;;;;;1.80;1.70;;;20.00;52.40;;;;;;4999582;28;20234;-76
2023/05/12 02:21:22;;;;;;;1.60;1.50;;;20.00;52.40;;;;;;5013229;28;20210;-75
2023/05/12 02:23:47;;;;;;;1.90;1.80;;;20.00;52.40;;;;;;5010411;28;20269;-75
2023/05/12 02:26:13;;;;;;;1.80;1.70;;;20.00;52.50;;;;;;5015828;28;20214;-75
2023/05/12 02:28:39;;;;;;;1.70;1.60;;;20.00;52.40;;;;;;5014351;28;20223;-75
2023/05/12 02:31:05;;;;;;;2.00;1.90;;;20.00;52.40;;;;;;5013110;28;20255;-76
2023/05/12 02:33:30;;;;;;;1.63;1.53;;;20.00;52.40;;;;;;5011127;28;20969;-75
2023/05/12 02:35:56;;;;;;;1.73;1.63;;;20.00;52.50;;;;;;5015841;28;20215;-75
2023/05/12 02:38:21;;;;;;;1.90;1.80;;;20.00;52.40;;;;;;5014647;28;20285;-76
2023/05/12 02:40:47;;;;;;;1.80;1.70;;;20.00;52.40;;;;;;5014770;28;20229;-75
2023/05/12 02:43:13;;;;;;;1.60;1.50;;;20.00;52.40;;;;;;5016661;28;20257;-75
2023/05/12 02:45:40;;;;;;;1.50;1.40;;;19.90;52.30;;;;;;4996530;28;20230;-75
2023/05/12 02:48:06;;;;;;;1.77;1.67;;;20.00;52.40;;;;;;5015706;28;21030;-76
2023/05/12 02:50:31;;;;;;;1.67;1.57;;;20.00;52.40;;;;;;5018188;28;20533;-75
2023/05/12 02:52:57;;;;;;;1.53;1.43;;;20.00;52.40;;;;;;5006947;28;20215;-75
2023/05/12 02:55:22;;;;;;;1.60;1.50;;;20.00;52.50;;;;;;5008848;28;20230;-74
2023/05/12 02:57:48;;;;;;;1.60;1.50;;;19.90;52.40;;;;;;5002449;28;20215;-75
2023/05/12 03:00:14;;;;;;;1.73;1.63;;;19.90;52.30;;;;;;5005177;28;20219;-75
2023/05/12 03:02:40;;;;;;;1.77;1.67;;;20.00;52.40;;;;;;4990222;28;20222;-75
2023/05/12 03:05:06;;;;;;;1.70;1.60;;;19.90;52.30;;;;;;5005650;28;20238;-75
2023/05/12 03:07:32;;;;;;;1.67;1.57;;;20.00;52.40;;;;;;5013283;28;20219;-76
2023/05/12 03:09:58;;;;;;;1.47;1.37;;;20.00;52.40;;;;;;5001877;28;21147;-75
2023/05/12 03:12:23;;;;;;;1.60;1.50;;;20.00;52.40;;;;;;5002610;28;20234;-76
2023/05/12 03:14:50;;;;;;;1.50;1.40;;;20.00;52.40;;;;;;5006478;28;20260;-75
2023/05/12 03:17:15;;;;;;;1.50;1.40;;;20.00;52.50;;;;;;5003511;28;20226;-75
2023/05/12 03:19:41;;;;;;;1.30;1.20;;;20.00;52.40;;;;;;5007428;28;20448;-75
2023/05/12 03:22:06;;;;;;;1.50;1.40;;;20.00;52.40;;;;;;4981410;28;20228;-75
2023/05/12 03:24:32;;;;;;;1.50;1.40;;;20.00;52.50;;;;;;4980908;28;20232;-75
2023/05/12 03:26:59;;;;;;;1.30;1.20;;;19.90;52.30;;;;;;4982319;28;20239;-76
2023/05/12 03:29:25;;;;;;;1.70;1.60;;;19.90;52.40;;;;;;4980816;28;20421;-75
2023/05/12 03:31:51;;;;;;;1.30;1.20;;;19.90;52.30;;;;;;4988016;28;20609;-75
2023/05/12 03:34:17;;;;;;;1.40;1.30;;;19.90;52.30;;;;;;4989426;28;20538;-74
2023/05/12 03:36:42;;;;;;;1.37;1.27;;;19.90;52.30;;;;;;4993016;28;20530;-75
2023/05/12 03:39:08;;;;;;;1.30;1.20;;;20.00;52.40;;;;;;4986649;28;20227;-74
2023/05/12 03:41:34;;;;;;;1.37;1.27;;;20.00;52.40;;;;;;4994279;28;20236;-75
2023/05/12 03:44:00;;;;;;;1.40;1.30;;;19.90;52.30;;;;;;4991744;28;20227;-76
2023/05/12 03:46:26;;;;;;;1.00;0.90;;;19.90;52.30;;;;;;4991000;28;22491;-74
2023/05/12 03:48:52;;;;;;;1.23;1.13;;;19.90;52.30;;;;;;4979642;28;20709;-75
2023/05/12 03:51:17;;;;;;;1.30;1.20;;;19.90;52.30;;;;;;4990927;28;20270;-75
2023/05/12 03:53:45;;;;;;;1.40;1.30;;;20.00;53.20;;;;;;4986337;28;20445;-75
2023/05/12 03:56:10;;;;;;;1.30;1.20;;;19.90;52.30;;;;;;4980812;28;20701;-75
2023/05/12 03:58:36;;;;;;;1.40;1.30;;;19.90;52.30;;;;;;4975961;28;20453;-76
2023/05/12 04:01:02;;;;;;;1.30;1.20;;;19.90;52.30;;;;;;4985084;28;20228;-76
2023/05/12 04:03:28;;;;;;;1.30;1.20;;;19.90;52.30;;;;;;4988675;28;20573;-76
2023/05/12 04:06:00;;;;;;;1.20;1.10;;;19.90;52.40;;;;;;4985881;28;20440;-76
2023/05/12 04:08:26;;;;;;;1.00;1.00;;;19.90;52.40;;;;;;4982518;28;20292;-76
2023/05/12 04:10:57;;;;;;;1.30;1.20;;;19.90;52.40;;;;;;4981125;28;20464;-78
2023/05/12 04:13:23;;;;;;;1.47;1.37;;;19.90;52.40;;;;;;4989632;28;21132;-77
2023/05/12 04:15:49;;;;;;;1.40;1.30;;;19.90;52.30;;;;;;4986306;28;20922;-76
2023/05/12 04:18:15;;;;;;;1.20;1.10;;;19.90;52.30;;;;;;4986648;28;20462;-76
2023/05/12 04:20:41;;;;;;;1.20;1.10;;;19.90;52.30;;;;;;4974611;28;20231;-75
2023/05/12 04:23:06;;;;;;;1.00;1.00;;;20.00;52.50;;;;;;4980911;28;20482;-76
2023/05/12 04:25:32;;;;;;;1.10;1.00;;;20.00;52.50;;;;;;4987128;28;20217;-77
2023/05/12 04:27:58;;;;;;;1.10;1.00;;;19.90;52.40;;;;;;4981381;28;20289;-75
2023/05/12 04:30:23;;;;;;;1.30;1.20;;;19.90;52.50;;;;;;4993929;28;20587;-77
2023/05/12 04:32:49;;;;;;;1.20;1.10;;;19.90;52.30;;;;;;4987794;28;20781;-76
2023/05/12 04:35:14;;;;;;;1.20;1.10;;;20.00;52.50;;;;;;4979590;28;20220;-76
2023/05/12 04:37:40;;;;;;;1.67;1.10;;;19.90;52.30;;;;;;4972928;28;20227;-74
2023/05/12 04:40:07;;;;;;;1.00;1.00;;;20.00;52.40;;;;;;4994586;28;20216;-77
2023/05/12 04:42:33;;;;;;;1.30;1.20;;;19.90;52.30;;;;;;4984775;28;20589;-74
2023/05/12 04:44:59;;;;;;;1.10;1.00;;;19.90;52.40;;;;;;4983686;28;20439;-76
2023/05/12 04:47:24;;;;;;;1.07;1.00;;;19.90;52.30;;;;;;4979232;28;20220;-76
2023/05/12 04:49:50;;;;;;;1.10;1.03;;;19.90;52.30;;;;;;4970015;28;20216;-76
2023/05/12 04:52:15;;;;;;;1.17;1.07;;;20.00;52.40;;;;;;4976566;28;20231;-76
2023/05/12 04:54:41;;;;;;;2.90;1.23;;;19.90;52.30;;;;;;4988082;28;20227;-76
2023/05/12 04:57:07;;;;;;;1.30;1.20;;;20.00;52.40;;;;;;4973944;28;20236;-76
2023/05/12 04:59:32;;;;;;;5.27;1.50;;;19.90;52.30;;;;;;4987000;28;20224;-77
2023/05/12 05:01:58;;;;;;;6.70;1.40;;;19.90;52.30;;;;;;4978069;28;21645;-76
2023/05/12 05:04:23;;;;;;;5.23;1.60;;;20.00;52.50;;;;;;4991781;28;20238;-76
2023/05/12 05:06:49;;;;;;;3.97;1.70;;;20.00;52.40;;;;;;4977113;28;20591;-76
2023/05/12 05:09:15;;;;;;;1.53;1.17;;;20.00;52.40;;;;;;4982691;28;20232;-76
2023/05/12 05:11:40;;;;;;;6.97;1.53;;;20.00;52.40;;;;;;4979299;28;20694;-75
2023/05/12 05:14:06;;;;;;;2.20;1.10;;;20.00;52.40;;;;;;4981990;28;20234;-76
2023/05/12 05:16:31;;;;;;;1.30;1.07;;;20.00;52.40;;;;;;4977408;28;20676;-76
2023/05/12 05:18:57;;;;;;;1.40;1.30;;;19.90;52.30;;;;;;4980745;28;20216;-77
2023/05/12 05:21:22;;;;;;;1.70;1.00;;;20.00;52.50;;;;;;4984584;28;20695;-77
2023/05/12 05:23:48;;;;;;;4.53;1.20;;;20.00;52.50;;;;;;4995571;28;20228;-79
2023/05/12 05:26:13;;;;;;;1.50;1.33;;;20.00;52.40;;;;;;4989456;28;20222;-78
2023/05/12 05:28:39;;;;;;;2.80;1.10;;;20.00;52.40;;;;;;4993398;28;20235;-77
2023/05/12 05:31:05;;;;;;;2.10;1.10;;;20.00;52.40;;;;;;5003310;28;20297;-79
2023/05/12 05:33:31;;;;;;;1.73;1.23;;;20.00;52.30;;;;;;4988034;28;20609;-79
2023/05/12 05:35:57;;;;;;;1.20;1.10;;;20.00;52.30;;;;;;5004639;28;20227;-84
2023/05/12 05:38:22;;;;;;;1.10;1.00;;;20.00;52.30;;;;;;4976412;28;20212;-82
2023/05/12 05:40:48;;;;;;;2.33;1.10;;;20.00;52.30;;;;;;4995924;28;20716;-80
2023/05/12 05:43:13;;;;;;;1.37;1.03;;;20.00;52.30;;;;;;4982637;28;20274;-80
2023/05/12 05:45:39;;;;;;;1.63;1.10;;;20.00;52.30;;;;;;4976277;28;20231;-75
2023/05/12 05:48:05;;;;;;;1.40;1.17;;;20.00;52.30;;;;;;4980050;28;20227;-77
2023/05/12 05:50:31;;;;;;;2.00;1.10;;;20.00;52.30;;;;;;4979364;28;20232;-78
2023/05/12 05:52:56;;;;;;;1.73;1.10;;;20.10;52.30;;;;;;4978859;28;20439;-78
2023/05/12 05:55:22;;;;;;;1.20;1.10;;;20.00;52.30;;;;;;4984640;28;20219;-78
2023/05/12 05:57:48;;;;;;;1.87;1.10;;;20.00;52.30;;;;;;4975345;28;20216;-79
2023/05/12 06:00:14;;;;;;;1.10;1.00;;;20.10;52.30;;;;;;4987859;28;20222;-79
2023/05/12 06:02:40;;;;;;;1.30;1.20;;;20.00;52.20;;;;;;4976773;28;20221;-79
2023/05/12 06:05:06;;;;;;;1.60;1.10;;;20.10;52.30;;;;;;4994385;28;20450;-78
2023/05/12 06:07:32;;;;;;;1.30;1.20;;;20.00;52.30;;;;;;4980094;28;20593;-79
2023/05/12 06:09:58;;;;;;;1.17;1.07;;;20.00;52.20;;;;;;4981924;28;20811;-78
2023/05/12 06:12:23;;;;;;;2.10;1.17;;;20.10;52.30;;;;;;4987499;28;20359;-78
2023/05/12 06:14:50;;;;;;;1.20;1.00;;;20.10;52.30;;;;;;5008110;28;20243;-78
2023/05/12 06:17:15;;;;;;;1.53;1.20;;;20.10;52.30;;;;;;4979141;28;20687;-78
2023/05/12 06:19:41;;;;;;;1.43;1.20;;;20.10;52.30;;;;;;4982824;28;20457;-78
2023/05/12 06:22:06;;;;;;;1.10;1.00;;;20.10;52.30;;;;;;4986807;28;20290;-78
2023/05/12 06:24:32;;;;;;;1.47;1.20;;;20.10;52.30;;;;;;4986236;28;20746;-78
2023/05/12 06:26:57;;;;;;;1.50;1.10;;;20.10;52.30;;;;;;5002043;28;20249;-78
2023/05/12 06:29:23;;;;;;;2.00;1.20;;;20.10;52.30;;;;;;4990280;28;20577;-78
2023/05/12 06:31:48;;;;;;;2.00;1.20;;;20.10;52.30;;;;;;4989397;28;20243;-78
2023/05/12 06:34:14;;;;;;;1.50;1.27;;;20.10;52.20;;;;;;5001041;28;20585;-78
2023/05/12 06:36:39;;;;;;;1.13;0.93;;;20.10;52.30;;;;;;5009295;28;20226;-78
2023/05/12 06:39:05;;;;;;;1.20;1.10;;;20.10;52.20;;;;;;5006832;28;20218;-78
2023/05/12 06:41:32;;;;;;;1.93;1.10;;;20.10;52.20;;;;;;5014370;28;20279;-78
2023/05/12 06:44:00;;;;;;;1.50;1.33;;;20.10;52.30;;;;;;5004598;28;20293;-78
2023/05/12 06:46:26;;;;;;;3.23;1.30;;;20.10;52.30;;;;;;4993371;28;20469;-78
2023/05/12 06:48:51;;;;;;;1.47;1.20;;;20.10;52.20;;;;;;4999396;28;20448;-78
2023/05/12 06:51:17;;;;;;;1.27;1.17;;;20.10;52.30;;;;;;5006275;28;20227;-78
2023/05/12 06:53:42;;;;;;;1.40;1.20;;;20.10;52.20;;;;;;4989241;28;20645;-78
2023/05/12 06:56:10;;;;;;;3.07;1.10;;;20.20;52.30;;;;;;4996144;28;20679;-78
2023/05/12 06:58:35;;;;;;;2.27;1.33;;;20.10;52.20;;;;;;5008380;28;20216;-78
2023/05/12 07:01:01;;;;;;;1.97;1.30;;;20.20;52.30;;;;;;4986718;28;20881;-78
2023/05/12 07:03:29;;;;;;;1.47;1.20;;;20.20;52.30;;;;;;5005691;28;20208;-78
2023/05/12 07:05:55;;;;;;;1.30;1.20;;;20.10;52.20;;;;;;5008095;28;20263;-78
2023/05/12 07:08:20;;;;;;;2.13;1.20;;;20.10;52.20;;;;;;4996313;28;20455;-78
2023/05/12 07:10:46;;;;;;;1.40;1.20;;;20.10;52.20;;;;;;5006933;28;20219;-78
2023/05/12 07:13:12;;;;;;;5.83;1.40;;;20.10;52.20;;;;;;5003910;28;20760;-78
2023/05/12 07:15:37;;;;;;;3.10;1.30;;;20.20;52.30;;;;;;5005033;28;20301;-78
2023/05/12 07:18:03;;;;;;;1.40;1.10;;;20.20;52.30;;;;;;5013616;28;20269;-79
2023/05/12 07:20:28;;;;;;;1.40;1.03;;;20.20;52.40;;;;;;5015911;28;20697;-78
2023/05/12 07:22:55;;;;;;;1.47;1.37;;;20.20;52.80;;;;;;5016725;28;20230;-78
2023/05/12 07:25:21;;;;;;;1.70;1.50;;;20.20;52.30;;;;;;4998614;28;22059;-78
2023/05/12 07:27:46;;;;;;;2.50;1.37;;;20.20;52.30;;;;;;5014534;28;20442;-78
2023/05/12 07:30:13;;;;;;;1.37;1.27;;;20.20;52.30;;;;;;5002863;28;20215;-78
2023/05/12 07:32:38;;;;;;;1.40;1.20;;;20.20;52.30;;;;;;4995006;28;20739;-78
2023/05/12 07:35:04;;;;;;;3.00;1.20;;;20.20;52.30;;;;;;5015120;28;20459;-78
2023/05/12 07:37:30;;;;;;;1.97;1.30;;;20.20;52.30;;;;;;4998159;28;20301;-78
2023/05/12 07:39:56;;;;;;;1.30;1.10;;;20.20;52.30;;;;;;5012929;28;20229;-78
2023/05/12 07:42:22;;;;;;;1.37;1.10;;;20.20;52.30;;;;;;5003654;28;20461;-78
2023/05/12 07:44:48;;;;;;;1.40;1.30;;;20.20;52.30;;;;;;5014389;28;20296;-78
2023/05/12 07:47:13;;;;;;;1.30;1.20;;;20.20;52.20;;;;;;5017183;28;21167;-78
2023/05/12 07:49:39;;;;;;;2.20;1.03;;;20.20;52.30;;;;;;5017102;28;21053;-78
2023/05/12 07:52:05;;;;;;;1.60;1.30;;;20.20;52.30;;;;;;4995202;28;20245;-78
2023/05/12 07:54:31;;;;;;;1.20;1.10;;;20.20;52.30;;;;;;5005287;28;20235;-78
2023/05/12 07:56:56;;;;;;;1.30;1.20;;;20.30;52.40;;;;;;5006716;28;20265;-78
2023/05/12 07:59:22;;;;;;;1.83;1.20;;;20.20;52.20;;;;;;4996969;28;20215;-78
2023/05/12 08:01:48;;;;;;;1.23;1.13;;;20.20;52.30;;;;;;5013534;28;20242;-78
2023/05/12 08:04:13;;;;;;;1.20;1.10;;;20.20;52.30;;;;;;5010343;28;20223;-78
2023/05/12 08:06:39;;;;;;;1.30;1.20;;;20.20;52.20;;;;;;4993432;28;20224;-78
2023/05/12 08:09:05;;;;;;;2.40;1.37;;;20.30;52.40;;;;;;4996795;28;20705;-78
2023/05/12 08:11:30;;;;;;;1.83;0.90;;;20.20;52.30;;;;;;5013418;28;20283;-78
2023/05/12 08:13:56;;;;;;;1.30;1.20;;;20.30;52.30;;;;;;4997954;28;20281;-78
2023/05/12 08:16:22;;;;;;;1.80;1.70;;;20.20;52.30;;;;;;4998907;28;20220;-78
2023/05/12 08:18:48;;;;;;;2.43;1.43;;;20.20;52.20;;;;;;5012109;28;20272;-78
2023/05/12 08:21:13;;;;;;;1.10;1.00;;;20.30;52.30;;;;;;4990917;28;20221;-78
2023/05/12 08:23:39;;;;;;;1.50;1.40;;;20.30;52.40;;;;;;4992273;28;20235;-78
2023/05/12 08:26:05;;;;;;;2.23;1.20;;;20.30;52.30;;;;;;5013639;28;20227;-78
2023/05/12 08:28:31;;;;;;;1.50;1.27;;;20.30;52.40;;;;;;4985580;28;20243;-78
2023/05/12 08:30:57;;;;;;;1.30;1.20;;;20.30;52.40;;;;;;5000419;28;20667;-78
2023/05/12 08:33:23;;;;;;;1.43;1.33;;;20.30;52.30;;;;;;4994558;28;20583;-78
2023/05/12 08:35:49;;;;;;;1.30;1.20;;;20.30;52.40;;;;;;4986640;28;20435;-78
2023/05/12 08:38:15;;;;;;;2.60;1.30;;;20.30;52.40;;;;;;5001530;28;20433;-78
2023/05/12 08:40:58;;;;;;;1.57;1.43;;;20.30;52.30;;;;;;5003945;28;20430;-78
2023/05/12 08:43:28;;;;;;;1.20;1.10;;;20.30;52.30;;;;;;5001204;28;20871;-78
2023/05/12 08:45:57;;;;;;;1.30;1.20;;;20.30;52.30;;;;;;5003232;28;20476;-78
2023/05/12 08:48:26;;;;;;;1.47;1.20;;;20.30;52.30;;;;;;5009643;28;21038;-78
2023/05/12 08:50:53;;;;;;;1.77;1.37;;;20.30;52.30;;;;;;4992838;28;20446;-78
2023/05/12 08:53:21;;;;;;;1.20;1.10;;;20.30;52.30;;;;;;4994756;28;20966;-78
2023/05/12 08:55:47;;;;;;;2.03;1.23;;;20.30;52.30;;;;;;4999960;28;20518;-78
2023/05/12 08:58:14;;;;;;;1.67;1.57;;;20.30;52.30;;;;;;4998474;28;20449;-78
2023/05/12 09:00:40;;;;;;;1.10;1.00;;;20.30;52.30;;;;;;5010925;28;20223;-78
2023/05/12 09:03:06;;;;;;;1.43;1.20;;;20.30;52.30;;;;;;4991862;28;20993;-78
2023/05/12 09:05:33;;;;;;;1.40;1.20;;;20.30;52.30;;;;;;5007394;28;20450;-78
2023/05/12 09:07:59;;;;;;;2.03;1.57;;;20.30;52.30;;;;;;5010295;28;21604;-78
2023/05/12 09:10:27;;;;;;;1.27;1.17;;;20.30;52.30;;;;;;4997223;28;20470;-78
2023/05/12 09:12:59;;;;;;;3.07;1.13;;;20.30;52.30;;;;;;5001889;28;20826;-78
2023/05/12 09:15:34;;;;;;;1.57;1.47;;;20.30;52.30;;;;;;4991163;28;20465;-78
2023/05/12 09:17:59;;;;;;;1.40;1.30;;;20.30;52.40;;;;;;5003956;28;20539;-78
2023/05/12 09:20:25;;;;;;;2.40;1.30;;;20.30;52.30;;;;;;5008497;28;20493;-78
2023/05/12 09:22:51;;;;;;;1.30;1.20;;;20.40;52.40;;;;;;4987408;28;20286;-78
2023/05/12 09:25:20;;;;;;;1.33;1.23;;;20.30;52.30;;;;;;5014259;28;20227;-78
2023/05/12 09:27:48;;;;;;;1.50;1.40;;;20.30;52.40;;;;;;5002835;28;20572;-78
2023/05/12 09:30:14;;;;;;;1.33;1.10;;;20.30;52.20;;;;;;4989693;28;20847;-78
2023/05/12 09:32:40;;;;;;;1.17;1.07;;;20.40;52.30;;;;;;4994436;28;21008;-78
2023/05/12 09:35:10;;;;;;;1.30;1.20;;;20.40;52.20;;;;;;5001629;28;20493;-78
2023/05/12 09:37:36;;;;;;;1.30;1.20;;;20.40;52.20;;;;;;5005020;28;20482;-78
2023/05/12 09:40:03;;;;;;;1.70;1.60;;;20.40;52.20;;;;;;5004445;28;20452;-78
2023/05/12 09:42:31;;;;;;;1.33;1.23;;;20.40;52.20;;;;;;5000260;28;20466;-78
2023/05/12 09:45:05;;;;;;;1.30;1.20;;;20.40;52.20;;;;;;4995093;28;20467;-78
2023/05/12 09:47:36;;;;;;;1.77;1.10;;;20.40;52.20;;;;;;5012695;28;20471;-78
2023/05/12 09:50:03;;;;;;;1.23;1.13;;;20.40;52.20;;;;;;5000356;28;21269;-78
2023/05/12 09:52:31;;;;;;;0.93;0.93;;;20.40;52.20;;;;;;4999590;28;20461;-78
2023/05/12 09:55:07;;;;;;;1.30;1.20;;;20.40;52.20;;;;;;4986681;28;20458;-78
2023/05/12 09:57:38;;;;;;;1.23;1.13;;;20.40;52.20;;;;;;5005728;28;20472;-78
2023/05/12 10:00:06;;;;;;;1.13;1.03;;;20.40;52.20;;;;;;4999386;28;20447;-77
2023/05/12 10:02:33;;;;;;;1.30;1.20;;;20.40;52.20;;;;;;5003968;28;20455;-78
2023/05/12 10:05:04;;;;;;;1.10;1.00;;;20.40;52.10;;;;;;4999087;28;20548;-78
2023/05/12 10:07:31;;;;;;;1.20;1.10;;;20.40;52.10;;;;;;5012555;28;20527;-78
2023/05/12 10:10:00;;;;;;;1.27;1.17;;;20.40;52.10;;;;;;5000828;28;20483;-78
2023/05/12 10:12:25;;;;;;;1.20;1.10;;;20.40;52.10;;;;;;5003876;28;20791;-78
2023/05/12 10:14:52;;;;;;;1.10;1.00;;;20.40;52.10;;;;;;4998422;28;20448;-78
2023/05/12 10:17:18;;;;;;;0.93;0.93;;;20.40;52.10;;;;;;5003021;28;20216;-78
2023/05/12 10:19:44;;;;;;;1.27;1.17;;;20.40;52.10;;;;;;5005923;28;20439;-78
2023/05/12 10:22:10;;;;;;;1.50;1.30;;;20.40;52.10;;;;;;5013620;28;20470;-78
2023/05/12 10:24:36;;;;;;;1.10;1.00;;;20.40;52.10;;;;;;5004403;28;20789;-79
2023/05/12 10:27:04;;;;;;;1.10;1.00;;;20.40;52.00;;;;;;5001482;28;20219;-74
2023/05/12 10:29:31;;;;;;;1.20;1.10;;;20.50;52.10;;;;;;5003135;28;20447;-75
2023/05/12 10:31:59;;;;;;;1.23;1.13;;;20.40;52.00;;;;;;5007453;28;20443;-77
2023/05/12 10:34:40;;;;;;;1.30;1.20;;;20.50;52.10;;;;;;5001880;28;20475;-76
2023/05/12 10:37:09;;;;;;;1.20;1.10;;;20.50;52.80;;;;;;5002959;28;20557;-76
2023/05/12 10:39:36;;;;;;;1.23;1.13;;;20.50;52.10;;;;;;5009704;28;20990;-75
2023/05/12 10:42:06;;;;;;;1.40;1.30;;;20.40;52.00;;;;;;4997363;28;20423;-76
2023/05/12 10:44:31;;;;;;;1.07;1.00;;;20.50;52.10;;;;;;5009290;28;20456;-76
2023/05/12 10:46:58;;;;;;;1.40;1.30;;;20.50;52.10;;;;;;5017245;28;20838;-76
2023/05/12 10:49:37;;;;;;;1.33;1.23;;;20.50;52.10;;;;;;5001486;28;20759;-76
2023/05/12 10:52:03;;;;;;;2.77;1.40;;;20.50;52.10;;;;;;5010963;28;22346;-76
2023/05/12 10:54:35;;;;;;;1.20;1.10;;;20.50;52.10;;;;;;5007504;28;20437;-76
2023/05/12 10:57:01;;;;;;;1.30;1.20;;;20.50;52.10;;;;;;5012706;28;20757;-76
2023/05/12 10:59:29;;;;;;;1.43;1.33;;;20.50;52.00;;;;;;4992437;28;20532;-76
2023/05/12 11:02:04;;;;;;;1.10;1.00;;;20.50;52.00;;;;;;4996346;28;21065;-76
2023/05/12 11:04:51;;;;;;;1.47;1.20;;;20.50;52.00;;;;;;5003555;28;20966;-76
2023/05/12 11:07:22;;;;;;;1.33;1.23;;;20.50;52.00;;;;;;5000008;28;20461;-77
2023/05/12 11:09:48;;;;;;;1.30;1.20;;;20.50;52.00;;;;;;5007621;28;20495;-77
2023/05/12 11:12:14;;;;;;;1.50;1.30;;;20.50;52.00;;;;;;5005153;28;20860;-77
2023/05/12 11:14:42;;;;;;;2.43;1.30;;;20.50;52.00;;;;;;5017657;28;20223;-76
2023/05/12 11:17:08;;;;;;;1.50;1.40;;;20.50;52.00;;;;;;5005550;28;20227;-76
2023/05/12 11:19:35;;;;;;;1.27;1.17;;;20.50;52.00;;;;;;4998068;28;20403;-76
2023/05/12 11:22:06;;;;;;;1.30;1.20;;;20.50;52.00;;;;;;4998225;28;20330;-76
2023/05/12 11:24:32;;;;;;;1.20;1.10;;;20.50;52.00;;;;;;4997160;28;20536;-76
2023/05/12 11:26:57;;;;;;;1.37;1.20;;;20.50;52.00;;;;;;5006026;28;20465;-76
2023/05/12 11:29:23;;;;;;;1.40;1.30;;;20.50;52.00;;;;;;5012553;28;20526;-76
2023/05/12 11:31:50;;;;;;;1.10;1.00;;;20.50;51.90;;;;;;4989569;28;20238;-76
2023/05/12 11:34:20;;;;;;;1.40;1.30;;;20.50;51.90;;;;;;5006800;28;20215;-76
2023/05/12 11:36:47;;;;;;;1.27;1.07;;;20.50;51.90;;;;;;5007779;28;21313;-76
2023/05/12 11:39:16;;;;;;;1.30;1.20;;;20.50;51.90;;;;;;4990873;28;20684;-76
2023/05/12 11:41:43;;;;;;;1.40;1.30;;;20.50;51.90;;;;;;4995141;28;20444;-76
2023/05/12 11:44:24;;;;;;;1.30;1.20;;;20.50;51.90;;;;;;5014242;28;21105;-76
2023/05/12 11:46:59;;;;;;;1.23;1.10;;;20.50;51.90;;;;;;4991349;28;21128;-77
2023/05/12 11:49:29;;;;;;;1.23;1.13;;;20.50;51.90;;;;;;5007039;28;20494;-76
2023/05/12 11:51:59;;;;;;;1.20;1.10;;;20.50;51.80;;;;;;5007002;28;20511;-76
2023/05/12 11:54:28;;;;;;;1.43;1.33;;;20.50;51.90;;;;;;5009198;28;20452;-76
2023/05/12 11:56:54;;;;;;;1.20;1.10;;;20.50;51.80;;;;;;5013723;28;20455;-76
2023/05/12 11:59:31;;;;;;;1.50;1.40;;;20.50;52.60;;;;;;5004099;28;20472;-76
2023/05/12 12:01:58;;;;;;;1.40;1.30;;;20.50;51.90;;;;;;4999033;28;20431;-76
2023/05/12 12:04:50;;;;;;;1.70;1.60;;;20.50;51.90;;;;;;4992426;28;20449;-76
2023/05/12 12:07:26;;;;;;;1.30;1.20;;;20.50;51.80;;;;;;5007509;28;20457;-76
2023/05/12 12:09:52;;;;;;;1.30;1.20;;;20.50;51.80;;;;;;5008684;28;20475;-76
2023/05/12 12:12:17;;;;;;;1.60;1.50;;;20.60;51.90;;;;;;5009397;28;20927;-76
2023/05/12 12:14:43;;;;;;;1.33;1.23;;;20.50;51.80;;;;;;5015854;28;20223;-76
2023/05/12 12:17:09;;;;;;;1.30;1.20;;;20.50;51.80;;;;;;5001776;28;20223;-76
2023/05/12 12:19:34;;;;;;;1.40;1.30;;;20.50;51.80;;;;;;5012625;28;20216;-76
2023/05/12 12:21:59;;;;;;;1.37;1.27;;;20.60;51.80;;;;;;4990768;28;20739;-76
2023/05/12 12:24:25;;;;;;;1.63;1.53;;;20.50;51.70;;;;;;4997034;28;20216;-76
2023/05/12 12:26:51;;;;;;;1.33;1.23;;;20.50;51.80;;;;;;4994695;28;20266;-76
2023/05/12 12:29:17;;;;;;;1.50;1.40;;;20.50;51.70;;;;;;5007543;28;20211;-76
2023/05/12 12:31:43;;;;;;;1.40;1.30;;;20.50;51.80;;;;;;4990962;28;20273;-76
2023/05/12 12:34:09;;;;;;;1.47;1.37;;;20.50;51.70;;;;;;5005795;28;20258;-77
2023/05/12 12:36:34;;;;;;;1.37;1.27;;;20.50;51.80;;;;;;5015041;28;20318;-76
2023/05/12 12:39:01;;;;;;;1.23;1.13;;;20.50;51.80;;;;;;5013575;28;20471;-76
2023/05/12 12:41:26;;;;;;;1.53;1.43;;;20.60;51.80;;;;;;4998832;28;20211;-76
2023/05/12 12:43:52;;;;;;;1.43;1.33;;;20.50;51.80;;;;;;5013314;28;20792;-75